Time;durP1;ratioP1;P1;durP2;ratioP2;P2;SDS_P1;SDS_P2;PMS_P1;PMS_P2;Temp;Humidity;BMP_temperature;BMP_pressure;BME280_temperature;BME280_humidity;BME280_pressure;Samples;Min_cycle;Max_cycle;Signal;HPM_P1;HPM_P2
2023/01/17 00:02:09;;;;;;;74.70;21.40;;;4.00;99.90;;;;;;6216904;23;20151;-88
2023/01/17 00:10:09;;;;;;;66.93;8.85;;;3.90;99.90;;;;;;6225127;23;20163;-88
2023/01/17 00:12:35;;;;;;;68.78;12.00;;;3.90;99.90;;;;;;6199368;23;20144;-88
2023/01/17 00:15:02;;;;;;;72.40;10.67;;;3.90;99.90;;;;;;6223134;23;20147;-87
2023/01/17 00:17:29;;;;;;;67.40;9.65;;;3.90;99.90;;;;;;6195211;23;20387;-87
2023/01/17 00:26:02;;;;;;;69.63;8.73;;;4.00;99.90;;;;;;6222854;23;20159;-86
2023/01/17 01:35:23;;;;;;;65.50;8.07;;;4.00;99.90;;;;;;6228990;23;20132;-86
2023/01/17 01:37:49;;;;;;;74.35;21.80;;;4.00;99.90;;;;;;6228119;23;20614;-86
2023/01/17 01:40:16;;;;;;;65.03;8.93;;;4.00;99.90;;;;;;6227841;23;20220;-86
2023/01/17 01:42:57;;;;;;;65.25;7.78;;;3.90;99.90;;;;;;6226574;23;20626;-86
2023/01/17 01:45:26;;;;;;;67.13;7.65;;;3.90;99.90;;;;;;6201202;23;20148;-86
2023/01/17 01:48:01;;;;;;;65.85;7.72;;;3.90;99.90;;;;;;6227197;23;20175;-86
2023/01/17 01:50:28;;;;;;;65.40;7.13;;;3.90;99.90;;;;;;6200190;23;20482;-86
2023/01/17 01:52:57;;;;;;;65.00;7.40;;;3.90;99.90;;;;;;6201767;23;20172;-86
2023/01/17 01:55:27;;;;;;;64.10;6.60;;;3.90;99.90;;;;;;6198870;23;20562;-86
2023/01/17 01:57:58;;;;;;;65.75;7.32;;;4.00;99.90;;;;;;6226978;23;20187;-86
2023/01/17 02:00:32;;;;;;;66.38;8.80;;;3.90;99.90;;;;;;6203905;23;20141;-86
2023/01/17 02:03:01;;;;;;;64.60;6.85;;;3.90;99.90;;;;;;6227654;23;20156;-86
2023/01/17 02:05:27;;;;;;;67.97;7.10;;;3.90;99.90;;;;;;6227667;23;20164;-86
2023/01/17 02:08:04;;;;;;;66.43;6.95;;;3.90;99.90;;;;;;6200012;23;20176;-86
2023/01/17 02:10:39;;;;;;;65.07;7.63;;;3.80;99.90;;;;;;6199319;23;20231;-86
2023/01/17 02:13:05;;;;;;;64.13;6.40;;;3.80;99.90;;;;;;6226719;23;20180;-86
2023/01/17 02:15:50;;;;;;;67.18;8.20;;;3.80;99.90;;;;;;6199452;23;20144;-86
2023/01/17 02:18:42;;;;;;;64.45;6.80;;;3.80;99.90;;;;;;6225466;23;20227;-86
2023/01/17 02:21:19;;;;;;;64.13;6.90;;;3.80;99.90;;;;;;6226220;23;20133;-86
2023/01/17 02:24:26;;;;;;;67.55;7.30;;;3.80;99.90;;;;;;6199414;23;20141;-86
2023/01/17 02:27:26;;;;;;;65.70;6.70;;;3.80;99.90;;;;;;6199037;23;20168;-86
2023/01/17 02:30:29;;;;;;;65.55;6.97;;;3.80;99.90;;;;;;6199051;23;20222;-86
2023/01/17 02:33:33;;;;;;;65.55;8.68;;;3.90;99.90;;;;;;6199148;23;20144;-86
2023/01/17 02:36:09;;;;;;;67.80;8.90;;;3.90;99.90;;;;;;6208317;23;20168;-86
2023/01/17 02:39:03;;;;;;;67.28;8.95;;;3.80;99.90;;;;;;6226207;23;20140;-86
2023/01/17 02:41:33;;;;;;;66.25;7.55;;;3.80;99.90;;;;;;6225910;23;20183;-86
2023/01/17 02:44:01;;;;;;;67.75;8.00;;;3.70;99.90;;;;;;6226064;23;20128;-87
2023/01/17 02:46:27;;;;;;;65.28;7.00;;;3.60;99.90;;;;;;6198542;23;20179;-86
2023/01/17 02:48:54;;;;;;;68.63;8.30;;;3.60;99.90;;;;;;6225548;23;20559;-86
2023/01/17 02:51:37;;;;;;;66.68;7.43;;;3.60;99.90;;;;;;6226048;23;20141;-86
2023/01/17 02:54:21;;;;;;;67.72;7.55;;;3.60;99.90;;;;;;6226111;23;20121;-86
2023/01/17 02:56:50;;;;;;;66.63;7.20;;;3.50;99.90;;;;;;6199843;23;20186;-86
2023/01/17 02:59:30;;;;;;;67.28;8.48;;;3.50;99.90;;;;;;6199549;23;20152;-86
2023/01/17 03:02:03;;;;;;;66.82;8.40;;;3.60;99.90;;;;;;6225165;23;20148;-86
2023/01/17 03:04:43;;;;;;;69.90;8.60;;;3.60;99.90;;;;;;6224788;23;20164;-86
2023/01/17 03:07:15;;;;;;;70.70;9.13;;;3.60;99.90;;;;;;6198905;23;20187;-86
2023/01/17 03:09:44;;;;;;;69.03;7.97;;;3.60;99.90;;;;;;6197021;23;20175;-86
2023/01/17 03:12:10;;;;;;;67.22;7.60;;;3.60;99.90;;;;;;6224730;23;20141;-86
2023/01/17 03:14:36;;;;;;;71.95;8.60;;;3.60;99.90;;;;;;6224419;23;20521;-86
2023/01/17 03:17:02;;;;;;;72.90;7.50;;;3.60;99.90;;;;;;6224424;23;20231;-86
2023/01/17 03:19:28;;;;;;;70.03;8.60;;;3.60;99.90;;;;;;6224535;23;20601;-86
2023/01/17 03:21:54;;;;;;;74.65;9.52;;;3.60;99.90;;;;;;6197704;23;20152;-86
2023/01/17 03:24:19;;;;;;;70.10;10.80;;;3.70;99.90;;;;;;6197227;23;20156;-86
2023/01/17 03:26:46;;;;;;;70.67;11.57;;;3.70;99.90;;;;;;6223901;23;20188;-86
2023/01/17 03:29:13;;;;;;;76.70;12.40;;;3.70;99.90;;;;;;6197823;23;20240;-86
2023/01/17 03:31:38;;;;;;;69.28;13.55;;;3.70;99.90;;;;;;6200377;23;20144;-86
2023/01/17 03:34:04;;;;;;;69.27;11.97;;;3.70;99.90;;;;;;6224625;23;20136;-86
2023/01/17 03:36:30;;;;;;;72.10;11.13;;;3.60;99.90;;;;;;6225031;23;20214;-86
2023/01/17 03:38:55;;;;;;;67.40;11.30;;;3.60;99.90;;;;;;6198906;23;20155;-86
2023/01/17 03:41:21;;;;;;;68.83;16.47;;;3.60;99.90;;;;;;6198360;23;20209;-86
2023/01/17 03:43:47;;;;;;;70.00;14.80;;;3.60;99.90;;;;;;6225190;23;20141;-86
2023/01/17 03:46:24;;;;;;;72.77;22.50;;;3.60;99.90;;;;;;6198540;23;20168;-86
2023/01/17 03:48:50;;;;;;;81.05;34.08;;;3.60;99.90;;;;;;6197985;23;20263;-86
2023/01/17 03:51:16;;;;;;;73.70;15.65;;;3.50;99.90;;;;;;6224501;23;20654;-86
2023/01/17 03:53:43;;;;;;;71.25;17.55;;;3.50;99.90;;;;;;6198251;23;20144;-86
2023/01/17 03:56:18;;;;;;;71.03;18.13;;;3.50;99.90;;;;;;6197272;23;20216;-86
2023/01/17 03:58:44;;;;;;;71.85;18.40;;;3.60;99.90;;;;;;6225183;23;20132;-86
2023/01/17 04:01:10;;;;;;;74.60;17.37;;;3.50;99.90;;;;;;6224657;23;20140;-86
2023/01/17 04:03:36;;;;;;;74.47;21.57;;;3.50;99.90;;;;;;6196815;23;20171;-86
2023/01/17 04:06:01;;;;;;;72.27;20.73;;;3.60;99.90;;;;;;6223107;23;20771;-86
2023/01/17 04:08:27;;;;;;;72.47;21.93;;;3.60;99.90;;;;;;6197377;23;20260;-86
2023/01/17 04:10:53;;;;;;;72.47;16.40;;;3.50;99.90;;;;;;6196133;23;20148;-86
2023/01/17 04:13:18;;;;;;;68.77;14.07;;;3.60;99.90;;;;;;6195861;23;20140;-86
2023/01/17 04:15:47;;;;;;;70.50;18.33;;;3.60;99.90;;;;;;6196223;23;20145;-86
2023/01/17 04:18:15;;;;;;;68.75;13.30;;;3.60;99.90;;;;;;6223675;23;20144;-86
2023/01/17 04:20:41;;;;;;;72.30;15.27;;;3.60;99.90;;;;;;6195314;23;20155;-86
2023/01/17 04:23:07;;;;;;;67.45;9.65;;;3.50;99.90;;;;;;6196693;23;20180;-86
2023/01/17 04:25:33;;;;;;;68.33;7.80;;;3.60;99.90;;;;;;6222097;23;20190;-86
2023/01/17 04:32:15;;;;;;;68.93;7.40;;;3.60;99.90;;;;;;6066383;23;20192;-87
2023/01/17 04:35:38;;;;;;;67.38;6.72;;;3.60;99.90;;;;;;6065529;23;20144;-87
2023/01/17 04:42:31;;;;;;;69.97;7.60;;;3.60;99.90;;;;;;6010533;23;20164;-87
2023/01/17 04:50:09;;;;;;;67.50;7.75;;;3.60;99.90;;;;;;5890748;24;20188;-87
2023/01/17 04:53:38;;;;;;;67.35;7.18;;;3.60;99.90;;;;;;5843916;24;20492;-88
2023/01/17 05:00:13;;;;;;;67.82;7.25;;;3.60;99.90;;;;;;5862725;24;20156;-88
2023/01/17 05:07:01;;;;;;;;;;;;;;;;;;;;;
2023/01/17 05:09:49;;;;;;;;;;;;;;;;;;;;;
2023/01/17 05:12:46;;;;;;;67.32;7.15;;;3.40;99.90;;;;;;6152648;23;20532;-87
2023/01/17 05:16:02;;;;;;;67.60;8.55;;;3.50;99.90;;;;;;6095062;23;20175;-87
2023/01/17 05:26:04;;;;;;;67.82;7.10;;;3.30;99.90;;;;;;6064781;23;20146;-87
2023/01/17 05:28:58;;;;;;;69.53;7.40;;;3.30;99.90;;;;;;6051600;23;20634;-87
2023/01/17 05:32:12;;;;;;;;;;;;;;;;;;;;;
2023/01/17 05:49:29;;;;;;;71.22;8.40;;;3.30;99.90;;;;;;5926001;24;20638;-88
2023/01/17 05:52:37;;;;;;;;;;;;;;;;;;;;;
2023/01/17 06:03:50;;;;;;;70.00;7.55;;;3.30;99.90;;;;;;5827405;24;20212;-90
2023/01/17 06:07:14;;;;;;;;;;;;;;;;;;;;;
2023/01/17 06:09:42;;;;;;;70.80;7.80;;;3.20;99.90;;;;;;5816028;24;20268;-90
2023/01/17 06:16:22;;;;;;;69.65;9.15;;;3.20;99.90;;;;;;5898088;24;20175;-90
2023/01/17 06:19:31;;;;;;;68.00;7.00;;;3.20;99.90;;;;;;5896651;24;20209;-90
2023/01/17 06:35:05;;;;;;;69.90;7.60;;;3.10;99.90;;;;;;6182473;23;20160;-87
2023/01/17 06:38:09;;;;;;;67.65;7.25;;;3.10;99.90;;;;;;6180314;23;20175;-87
2023/01/17 06:41:32;;;;;;;;;;;;;;;;;;;;;
2023/01/17 06:45:12;;;;;;;;;;;;;;;;;;;;;
2023/01/17 06:59:07;;;;;;;68.55;7.50;;;2.80;99.90;;;;;;6094988;23;20162;-86
2023/01/17 07:02:19;;;;;;;71.82;7.93;;;2.70;99.90;;;;;;6067527;23;20573;-89
2023/01/17 07:05:18;;;;;;;73.68;8.27;;;2.70;99.90;;;;;;6066023;23;20190;-89
2023/01/17 07:08:36;;;;;;;70.60;8.50;;;2.60;99.90;;;;;;6065991;23;20176;-89
2023/01/17 07:12:08;;;;;;;;;;;;;;;;;;;;;
2023/01/17 07:15:42;;;;;;;72.85;9.50;;;2.80;99.90;;;;;;6063888;23;20159;-89
2023/01/17 07:19:01;;;;;;;67.78;8.05;;;2.90;99.90;;;;;;6036296;23;20152;-89
2023/01/17 07:22:24;;;;;;;68.15;8.38;;;2.90;99.90;;;;;;6008079;23;20333;-89
2023/01/17 07:25:06;;;;;;;70.43;8.07;;;2.90;99.90;;;;;;6053398;23;20152;-88
2023/01/17 07:28:24;;;;;;;72.07;8.25;;;2.90;99.90;;;;;;6094929;23;20219;-87
2023/01/17 07:31:39;;;;;;;;;;;;;;;;;;;;;
2023/01/17 07:41:41;;;;;;;;;;;;;;;;;;;;;
2023/01/17 07:44:56;;;;;;;70.50;8.70;;;2.70;99.90;;;;;;6161101;23;20679;-89
2023/01/17 07:48:00;;;;;;;68.53;8.35;;;2.70;99.90;;;;;;6187805;23;20610;-89
2023/01/17 07:51:21;;;;;;;73.47;8.48;;;2.80;99.90;;;;;;6149579;23;20619;-88
2023/01/17 07:54:57;;;;;;;;;;;;;;;;;;;;;
2023/01/17 08:01:38;;;;;;;71.88;8.60;;;2.90;99.90;;;;;;6176865;23;20148;-88
2023/01/17 08:04:36;;;;;;;;;;;;;;;;;;;;;
2023/01/17 08:08:16;;;;;;;68.13;8.00;;;2.70;99.90;;;;;;6215997;23;20258;-88
2023/01/17 08:11:16;;;;;;;68.65;9.20;;;2.70;99.90;;;;;;6213798;23;20156;-88
2023/01/17 08:17:19;;;;;;;72.50;7.80;;;2.80;99.90;;;;;;6124325;23;20248;-88
2023/01/17 08:21:11;;;;;;;69.60;7.85;;;2.80;99.90;;;;;;6039291;23;20162;-88
2023/01/17 08:23:47;;;;;;;68.95;8.38;;;2.80;99.90;;;;;;5986575;23;20160;-88
2023/01/17 08:29:29;;;;;;;69.03;8.05;;;2.80;99.90;;;;;;5982922;24;20245;-88
2023/01/17 08:32:01;;;;;;;70.03;8.15;;;2.80;99.90;;;;;;5981347;24;20149;-88
2023/01/17 08:38:51;;;;;;;;;;;;;;;;;;;;;
2023/01/17 08:41:56;;;;;;;69.90;8.63;;;2.90;99.90;;;;;;6183618;23;20228;-87
2023/01/17 08:44:33;;;;;;;69.95;8.18;;;3.00;99.90;;;;;;6217179;23;20146;-87
2023/01/17 08:47:53;;;;;;;67.70;8.05;;;3.00;99.90;;;;;;6218531;23;20187;-88
2023/01/17 08:50:47;;;;;;;68.35;7.43;;;3.10;99.90;;;;;;6200887;23;20633;-87
2023/01/17 08:53:22;;;;;;;70.80;7.90;;;3.00;99.90;;;;;;6217966;23;20135;-87
2023/01/17 08:56:33;;;;;;;68.28;8.30;;;2.90;99.90;;;;;;6190746;23;20574;-88
2023/01/17 09:02:20;;;;;;;68.45;7.95;;;2.90;99.90;;;;;;6201868;23;20175;-88
2023/01/17 09:05:57;;;;;;;68.30;8.25;;;2.90;99.90;;;;;;6183888;23;20613;-88
2023/01/17 09:11:47;;;;;;;68.72;8.15;;;2.90;99.90;;;;;;6067794;23;20159;-87
2023/01/17 09:17:59;;;;;;;;;;;;;;;;;;;;;
2023/01/17 09:20:47;;;;;;;72.05;7.93;;;3.10;99.90;;;;;;6068339;23;20214;-88
2023/01/17 09:28:04;;;;;;;68.20;7.68;;;3.10;99.90;;;;;;5899642;24;20187;-88
2023/01/17 09:37:11;;;;;;;67.10;7.47;;;3.20;99.90;;;;;;5926624;24;20174;-88
2023/01/17 09:40:42;;;;;;;;;;;;;;;;;;;;;
2023/01/17 09:44:23;;;;;;;;;;;;;;;;;;;;;
2023/01/17 09:47:03;;;;;;;71.85;7.80;;;3.20;99.90;;;;;;6062120;23;20546;-88
2023/01/17 09:50:27;;;;;;;69.35;8.50;;;3.40;99.90;;;;;;6184328;23;20177;-88
2023/01/17 09:53:26;;;;;;;67.57;6.97;;;3.50;99.90;;;;;;6067723;23;20468;-87
2023/01/17 10:01:53;;;;;;;71.03;7.75;;;3.80;99.90;;;;;;6188656;23;20185;-87
2023/01/17 10:04:56;;;;;;;67.53;7.75;;;3.90;99.90;;;;;;6179111;23;20153;-88
2023/01/17 10:08:10;;;;;;;71.88;6.70;;;4.10;99.90;;;;;;6153990;23;20176;-87
2023/01/17 10:11:28;;;;;;;71.50;6.40;;;4.20;96.20;;;;;;6142537;23;20161;-87
2023/01/17 10:14:51;;;;;;;70.47;5.63;;;4.20;94.80;;;;;;6188315;23;20140;-87
2023/01/17 10:18:08;;;;;;;72.07;6.82;;;4.30;97.00;;;;;;6067157;23;20175;-87
2023/01/17 10:20:58;;;;;;;71.30;6.40;;;4.40;96.40;;;;;;6079005;23;20233;-87
2023/01/17 10:27:24;;;;;;;69.75;5.82;;;4.70;90.10;;;;;;6041127;22;21272;-84
2023/01/17 10:29:50;;;;;;;66.70;6.10;;;4.60;67.90;;;;;;6254265;23;20168;-84
2023/01/17 10:32:17;;;;;;;68.85;5.93;;;4.70;73.50;;;;;;6254921;23;20196;-84
2023/01/17 10:34:51;;;;;;;71.82;6.07;;;4.70;76.40;;;;;;6226354;23;20225;-84
2023/01/17 10:37:34;;;;;;;69.75;6.18;;;4.80;81.40;;;;;;6253252;22;20160;-84
2023/01/17 10:40:12;;;;;;;67.90;6.18;;;5.00;86.60;;;;;;6253895;23;20259;-83
2023/01/17 10:42:49;;;;;;;71.40;6.32;;;5.00;69.40;;;;;;6226624;23;20150;-85
2023/01/17 10:45:27;;;;;;;74.88;6.30;;;5.10;75.00;;;;;;6227452;23;20143;-84
2023/01/17 10:48:20;;;;;;;68.80;6.35;;;5.20;61.90;;;;;;6227864;23;20174;-84
2023/01/17 10:51:14;;;;;;;67.55;6.07;;;5.30;61.50;;;;;;6242279;23;20155;-83
2023/01/17 10:53:58;;;;;;;67.97;5.28;;;5.30;52.10;;;;;;6253855;23;20128;-84
2023/01/17 10:56:27;;;;;;;69.88;5.82;;;5.30;63.10;;;;;;6227282;23;20199;-83
2023/01/17 10:59:28;;;;;;;68.75;6.03;;;5.30;57.80;;;;;;6227736;23;20148;-83
2023/01/17 11:01:53;;;;;;;74.80;6.70;;;5.40;54.50;;;;;;6253609;23;20166;-83
2023/01/17 11:04:22;;;;;;;69.67;6.33;;;5.40;49.10;;;;;;6253798;23;20140;-83
2023/01/17 11:07:13;;;;;;;70.38;6.45;;;5.30;49.60;;;;;;6254297;22;20163;-83
2023/01/17 11:09:41;;;;;;;70.15;7.63;;;5.50;52.20;;;;;;6227368;23;20199;-83
2023/01/17 11:12:42;;;;;;;67.90;6.43;;;5.60;51.60;;;;;;6226698;23;20148;-83
2023/01/17 11:15:08;;;;;;;71.95;6.30;;;5.60;41.60;;;;;;6246772;23;20143;-85
2023/01/17 11:17:45;;;;;;;73.23;6.20;;;5.60;43.30;;;;;;6253152;22;20526;-83
2023/01/17 11:20:21;;;;;;;70.43;6.43;;;5.70;47.80;;;;;;6227402;23;20227;-83
2023/01/17 11:23:02;;;;;;;76.40;6.85;;;5.80;41.90;;;;;;6226942;23;20146;-83
2023/01/17 11:25:32;;;;;;;70.90;6.93;;;5.60;34.40;;;;;;6226162;23;20178;-83
2023/01/17 11:28:24;;;;;;;68.90;6.47;;;5.60;40.10;;;;;;6226136;23;20167;-83
2023/01/17 11:30:59;;;;;;;68.82;7.68;;;5.60;37.90;;;;;;6252656;23;20136;-83
2023/01/17 11:33:45;;;;;;;68.03;6.10;;;5.50;30.00;;;;;;6252939;23;20146;-83
2023/01/17 11:36:21;;;;;;;69.10;6.82;;;5.40;33.90;;;;;;6226535;23;20686;-83
2023/01/17 11:38:55;;;;;;;74.45;6.63;;;5.10;31.80;;;;;;6253233;23;20171;-83
2023/01/17 11:41:22;;;;;;;71.45;7.57;;;5.10;44.30;;;;;;6252934;23;20561;-83
2023/01/17 11:43:54;;;;;;;74.38;6.65;;;5.00;42.60;;;;;;6252915;23;20220;-83
2023/01/17 11:46:21;;;;;;;68.65;5.97;;;4.90;47.30;;;;;;6252759;22;20674;-83
2023/01/17 11:48:51;;;;;;;68.25;6.40;;;4.80;53.50;;;;;;6253426;23;20175;-83
2023/01/17 11:51:38;;;;;;;70.00;7.45;;;4.80;57.50;;;;;;6226711;23;20166;-83
2023/01/17 11:54:20;;;;;;;71.50;6.65;;;4.70;61.50;;;;;;6225874;23;20167;-83
2023/01/17 11:56:46;;;;;;;69.22;6.32;;;4.70;68.80;;;;;;6252433;22;20159;-83
2023/01/17 11:59:23;;;;;;;72.67;6.90;;;4.70;75.80;;;;;;6253136;23;20151;-84
2023/01/17 12:02:03;;;;;;;70.35;6.57;;;4.80;80.00;;;;;;6253395;23;20132;-84
2023/01/17 12:04:29;;;;;;;69.75;6.70;;;4.80;78.50;;;;;;6253463;23;20128;-83
2023/01/17 12:07:04;;;;;;;69.23;6.87;;;4.80;77.50;;;;;;6227342;23;20172;-83
2023/01/17 12:10:03;;;;;;;75.50;6.90;;;4.80;76.70;;;;;;6253224;23;20393;-83
2023/01/17 12:15:33;;;;;;;69.60;5.90;;;4.90;64.70;;;;;;6253535;23;20140;-84
2023/01/17 12:18:14;;;;;;;69.15;7.90;;;4.90;61.90;;;;;;6226248;23;20139;-84
2023/01/17 12:21:04;;;;;;;70.35;7.60;;;4.80;63.80;;;;;;6226625;23;20170;-84
2023/01/17 12:23:51;;;;;;;68.50;5.45;;;4.80;65.90;;;;;;6253940;23;20124;-84
2023/01/17 12:26:30;;;;;;;70.32;6.22;;;4.70;62.70;;;;;;6227115;23;20168;-84
2023/01/17 12:29:38;;;;;;;69.45;6.28;;;4.70;68.20;;;;;;6252746;23;20179;-83
2023/01/17 12:32:27;;;;;;;69.70;5.93;;;4.70;75.20;;;;;;6240362;23;20150;-83
2023/01/17 12:35:01;;;;;;;71.82;6.88;;;4.70;70.60;;;;;;6254453;23;20125;-83
2023/01/17 12:37:38;;;;;;;75.45;6.88;;;4.80;63.10;;;;;;6253759;22;20160;-83
2023/01/17 12:40:12;;;;;;;69.70;6.38;;;4.80;62.70;;;;;;6253818;23;20132;-83
2023/01/17 12:42:42;;;;;;;67.07;5.60;;;4.90;64.20;;;;;;6254746;23;20135;-83
2023/01/17 12:45:38;;;;;;;69.22;6.45;;;4.70;50.70;;;;;;6252544;23;20140;-83
2023/01/17 12:48:24;;;;;;;72.10;7.20;;;4.60;47.60;;;;;;6252218;23;20148;-85
2023/01/17 12:50:57;;;;;;;73.05;6.93;;;4.50;53.80;;;;;;6254568;23;20166;-83
2023/01/17 12:53:50;;;;;;;71.57;7.50;;;4.50;56.60;;;;;;6227535;23;20136;-84
2023/01/17 12:56:23;;;;;;;71.10;7.35;;;4.50;61.90;;;;;;6254069;22;20160;-83
2023/01/17 12:59:06;;;;;;;76.50;8.00;;;4.50;65.00;;;;;;6255332;23;20223;-84
2023/01/17 13:01:38;;;;;;;72.72;7.53;;;4.60;68.10;;;;;;6229651;23;20148;-86
2023/01/17 13:04:24;;;;;;;70.35;7.90;;;4.40;68.10;;;;;;6255845;23;20197;-83
2023/01/17 13:06:59;;;;;;;70.45;8.20;;;4.40;72.80;;;;;;6255550;22;20223;-83
2023/01/17 13:09:32;;;;;;;72.75;7.30;;;4.30;76.40;;;;;;6256224;23;20174;-86
2023/01/17 13:12:05;;;;;;;71.82;7.85;;;4.30;77.70;;;;;;6228316;23;20482;-85
2023/01/17 13:14:31;;;;;;;74.60;7.95;;;4.20;67.00;;;;;;6255664;23;20509;-85
2023/01/17 13:17:25;;;;;;;68.97;7.05;;;4.20;61.20;;;;;;6255256;22;20167;-84
2023/01/17 13:20:35;;;;;;;70.00;6.03;;;4.20;54.40;;;;;;6228272;23;20159;-83
2023/01/17 13:23:15;;;;;;;68.68;5.47;;;4.10;29.70;;;;;;6205808;23;20170;-83
2023/01/17 13:25:47;;;;;;;68.53;5.53;;;4.10;23.60;;;;;;6254567;22;20132;-83
2023/01/17 13:28:16;;;;;;;68.57;5.47;;;4.10;22.20;;;;;;6255563;23;20179;-83
2023/01/17 13:31:18;;;;;;;67.93;5.68;;;4.10;27.60;;;;;;6228726;23;20151;-83
2023/01/17 13:34:02;;;;;;;69.30;6.00;;;4.10;33.70;;;;;;6211935;23;20147;-83
2023/01/17 13:36:58;;;;;;;70.60;6.97;;;4.20;41.90;;;;;;6226974;23;20164;-83
2023/01/17 13:39:42;;;;;;;68.57;6.55;;;4.10;35.50;;;;;;6255127;23;20219;-83
2023/01/17 13:42:33;;;;;;;70.25;6.72;;;4.20;43.40;;;;;;6228287;23;20144;-83
2023/01/17 13:45:05;;;;;;;75.90;7.10;;;4.20;31.80;;;;;;6255417;23;20143;-83
2023/01/17 13:47:30;;;;;;;70.15;7.35;;;4.20;31.20;;;;;;6254424;22;20160;-83
2023/01/17 13:50:05;;;;;;;69.67;6.00;;;4.30;34.50;;;;;;6227752;23;20171;-83
2023/01/17 13:52:31;;;;;;;71.47;5.93;;;4.30;22.10;;;;;;6227913;23;20370;-83
2023/01/17 13:55:02;;;;;;;68.88;5.95;;;4.30;14.80;;;;;;6254783;23;20465;-83
2023/01/17 13:57:44;;;;;;;68.38;6.07;;;4.20;12.50;;;;;;6254233;22;20156;-83
2023/01/17 14:00:25;;;;;;;73.72;6.80;;;4.20;12.50;;;;;;6254566;23;20125;-83
2023/01/17 14:02:54;;;;;;;68.72;6.47;;;4.20;19.20;;;;;;6253511;23;20168;-83
2023/01/17 14:05:41;;;;;;;72.45;7.10;;;4.30;23.00;;;;;;6225777;23;20593;-82
2023/01/17 14:08:20;;;;;;;66.60;5.55;;;4.30;22.80;;;;;;6224479;23;20151;-81
2023/01/17 14:11:04;;;;;;;68.20;5.70;;;4.30;22.60;;;;;;6251353;23;20230;-83
2023/01/17 14:13:38;;;;;;;69.20;6.68;;;4.30;22.10;;;;;;6252030;23;20592;-83
2023/01/17 14:16:25;;;;;;;73.53;5.80;;;4.40;26.20;;;;;;6228666;23;20227;-83
2023/01/17 14:18:51;;;;;;;67.95;6.30;;;4.40;30.40;;;;;;6226418;23;20148;-83
2023/01/17 14:21:32;;;;;;;72.90;6.53;;;4.40;37.00;;;;;;6253505;23;20516;-83
2023/01/17 14:24:11;;;;;;;68.65;5.90;;;4.40;39.20;;;;;;6254763;23;20124;-83
2023/01/17 14:27:00;;;;;;;67.85;5.50;;;4.40;42.80;;;;;;6253962;22;20160;-85
2023/01/17 14:29:41;;;;;;;67.97;6.20;;;4.40;42.10;;;;;;6227757;23;20176;-85
2023/01/17 14:32:36;;;;;;;70.45;6.35;;;4.40;44.70;;;;;;6227480;23;20151;-85
2023/01/17 14:35:03;;;;;;;69.47;5.35;;;4.40;39.50;;;;;;6249668;23;20183;-84
2023/01/17 14:37:31;;;;;;;69.03;5.63;;;4.40;36.40;;;;;;6225664;23;20483;-85
2023/01/17 14:39:59;;;;;;;68.20;6.43;;;4.50;36.90;;;;;;6226696;23;20148;-85
2023/01/17 14:42:30;;;;;;;69.20;6.35;;;4.40;38.00;;;;;;6252857;23;20147;-85
2023/01/17 14:45:08;;;;;;;69.03;5.55;;;4.40;41.90;;;;;;6226397;23;20151;-85
2023/01/17 14:47:38;;;;;;;67.90;5.63;;;4.40;35.70;;;;;;6253648;22;20206;-85
2023/01/17 14:50:23;;;;;;;68.13;5.82;;;4.40;34.50;;;;;;6252218;23;20171;-85
2023/01/17 14:53:12;;;;;;;76.03;6.78;;;4.40;36.80;;;;;;6226386;23;20147;-85
2023/01/17 14:55:47;;;;;;;68.63;7.13;;;4.40;41.40;;;;;;6225825;22;20151;-85
2023/01/17 14:58:22;;;;;;;69.75;6.43;;;4.40;44.40;;;;;;6253122;23;20222;-85
2023/01/17 15:00:50;;;;;;;69.50;6.35;;;4.40;46.20;;;;;;6253103;23;20281;-85
2023/01/17 15:03:16;;;;;;;70.70;5.72;;;4.40;43.50;;;;;;6252306;23;20465;-85
2023/01/17 15:05:48;;;;;;;74.93;6.95;;;4.30;44.60;;;;;;6225505;22;20151;-85
2023/01/17 15:08:18;;;;;;;72.07;7.20;;;4.30;50.50;;;;;;6251693;23;20613;-85
2023/01/17 15:10:57;;;;;;;69.65;6.47;;;4.30;51.30;;;;;;6252233;23;20478;-85
2023/01/17 15:13:36;;;;;;;68.32;6.25;;;4.20;50.50;;;;;;6226496;23;20553;-85
2023/01/17 15:16:15;;;;;;;69.53;5.75;;;4.20;56.80;;;;;;6225137;23;20160;-85
2023/01/17 15:18:41;;;;;;;72.85;6.22;;;4.10;65.40;;;;;;6253080;23;20513;-85
2023/01/17 15:21:12;;;;;;;70.90;6.57;;;4.00;68.10;;;;;;6252598;23;20238;-85
2023/01/17 15:23:43;;;;;;;67.50;5.78;;;3.90;79.20;;;;;;6252321;23;20128;-85
2023/01/17 15:26:13;;;;;;;70.95;6.10;;;4.00;76.70;;;;;;6226372;23;20601;-85
2023/01/17 15:28:40;;;;;;;69.43;6.13;;;3.90;72.70;;;;;;6225748;23;20278;-85
2023/01/17 15:31:12;;;;;;;68.68;6.43;;;3.80;79.20;;;;;;6252065;23;20144;-84
2023/01/17 15:33:45;;;;;;;75.03;6.38;;;3.80;83.20;;;;;;6251898;23;20124;-84
2023/01/17 15:36:33;;;;;;;70.90;6.45;;;3.70;84.70;;;;;;6251962;22;20187;-85
2023/01/17 15:39:02;;;;;;;67.82;6.78;;;3.60;90.00;;;;;;6225060;23;20144;-85
2023/01/17 15:41:34;;;;;;;68.93;6.88;;;3.50;92.60;;;;;;6252274;23;20144;-85
2023/01/17 15:44:01;;;;;;;73.40;7.68;;;3.40;95.30;;;;;;6224996;23;20144;-85
2023/01/17 15:46:40;;;;;;;67.07;7.13;;;3.30;96.20;;;;;;6252791;22;20189;-85
2023/01/17 15:49:14;;;;;;;72.63;7.20;;;3.20;99.30;;;;;;6252633;23;20163;-85
2023/01/17 15:51:47;;;;;;;75.43;8.23;;;3.20;99.60;;;;;;6253220;23;20546;-85
2023/01/17 15:54:39;;;;;;;69.72;8.82;;;3.10;99.90;;;;;;6225065;23;20144;-85
2023/01/17 15:57:05;;;;;;;73.32;9.95;;;2.90;99.90;;;;;;6224760;23;20166;-85
2023/01/17 15:59:36;;;;;;;69.63;8.73;;;2.80;99.90;;;;;;6252072;23;20581;-84
2023/01/17 16:02:02;;;;;;;71.35;9.70;;;2.70;99.90;;;;;;6251912;23;20527;-85
2023/01/17 16:04:33;;;;;;;69.37;8.30;;;2.60;99.90;;;;;;6252445;23;20168;-85
2023/01/17 16:07:19;;;;;;;71.30;9.38;;;2.50;99.90;;;;;;6252490;22;20305;-85
2023/01/17 16:09:45;;;;;;;78.97;9.43;;;2.40;99.90;;;;;;6225156;23;20256;-85
2023/01/17 16:12:11;;;;;;;70.97;8.20;;;2.30;99.90;;;;;;6252614;23;20148;-85
2023/01/17 16:14:38;;;;;;;73.30;8.60;;;2.30;99.90;;;;;;6252677;23;20599;-84
2023/01/17 16:17:04;;;;;;;76.20;9.90;;;2.30;99.90;;;;;;6251278;22;20383;-85
2023/01/17 16:19:33;;;;;;;72.43;8.65;;;2.20;99.90;;;;;;6251300;23;20651;-85
2023/01/17 16:22:01;;;;;;;68.63;8.18;;;2.10;99.90;;;;;;6225417;23;20171;-85
2023/01/17 16:24:30;;;;;;;69.35;8.88;;;2.10;99.90;;;;;;6225230;23;20143;-85
2023/01/17 16:26:56;;;;;;;70.78;11.60;;;2.00;99.90;;;;;;6225035;23;20195;-85
2023/01/17 16:32:50;;;;;;;74.55;10.68;;;1.80;99.90;;;;;;6216456;22;20773;-87
2023/01/17 16:44:32;;;;;;;77.55;11.05;;;1.80;99.90;;;;;;6098767;23;20167;-87
2023/01/17 16:48:00;;;;;;;;;;;;;;;;;;;;;
2023/01/17 16:51:15;;;;;;;87.80;12.85;;;1.70;99.90;;;;;;6098623;23;20245;-87
2023/01/17 16:53:53;;;;;;;73.00;11.25;;;1.60;99.90;;;;;;6011197;23;20296;-87
2023/01/17 16:56:39;;;;;;;74.20;11.55;;;1.50;99.90;;;;;;6011887;23;20192;-87
2023/01/17 17:34:24;;;;;;;;;;;;;;;;;;;;;
2023/01/17 17:37:47;;;;;;;83.75;12.40;;;1.50;99.90;;;;;;6219145;23;20239;-86
2023/01/17 17:43:16;;;;;;;85.47;19.02;;;1.30;99.90;;;;;;6099186;23;20242;-86
2023/01/17 17:50:24;;;;;;;;;;;;;;;;;;;;;
2023/01/17 18:04:26;;;;;;;;;;;;;;;;;;;;;
2023/01/17 18:24:00;;;;;;;77.85;17.85;;;0.70;99.90;;;;;;6219228;22;20506;-86
2023/01/17 18:39:33;;;;;;;79.72;18.15;;;0.70;99.90;;;;;;6126981;23;20145;-86
2023/01/17 19:24:54;;;;;;;;;;;;;;;;;;;;;
2023/01/17 20:11:59;;;;;;;;;;;;;;;;;;;;;
2023/01/17 20:29:39;;;;;;;;;;;;;;;;;;;;;
2023/01/17 20:54:08;;;;;;;;;;;;;;;;;;;;;
2023/01/17 21:10:21;;;;;;;;;;;;;;;;;;;;;
2023/01/17 22:11:06;;;;;;;79.80;19.73;;;-0.70;99.90;;;;;;5990733;24;20731;-86
2023/01/17 22:23:58;;;;;;;81.00;16.83;;;-0.70;99.90;;;;;;6165192;23;20157;-86
2023/01/17 22:29:40;;;;;;;71.68;14.73;;;-0.70;99.90;;;;;;6218969;22;20199;-84
2023/01/17 22:32:05;;;;;;;72.67;16.57;;;-0.80;99.90;;;;;;6197767;23;20145;-83
2023/01/17 22:34:31;;;;;;;78.53;17.17;;;-0.80;99.90;;;;;;6223625;23;20194;-85
2023/01/17 22:36:57;;;;;;;77.63;19.00;;;-0.70;99.90;;;;;;6196656;23;20610;-84
2023/01/17 22:39:22;;;;;;;75.37;16.67;;;-0.80;99.90;;;;;;6222874;23;20209;-85
2023/01/17 22:41:50;;;;;;;79.40;19.63;;;-0.70;99.90;;;;;;6196136;23;20145;-85
2023/01/17 22:44:16;;;;;;;75.72;16.30;;;-0.70;99.90;;;;;;6195971;23;20148;-84
2023/01/17 22:46:41;;;;;;;81.90;18.20;;;-0.70;99.90;;;;;;6222620;23;20164;-85
2023/01/17 22:49:12;;;;;;;86.67;21.20;;;-0.70;99.90;;;;;;6222419;23;20168;-84
2023/01/17 22:51:38;;;;;;;80.03;18.23;;;-0.60;99.90;;;;;;6223321;23;20179;-84
2023/01/17 22:54:04;;;;;;;83.82;20.92;;;-0.70;99.90;;;;;;6196677;23;20145;-84
2023/01/17 22:56:31;;;;;;;76.93;18.43;;;-0.70;99.90;;;;;;6222233;23;20156;-84
2023/01/17 22:58:59;;;;;;;83.22;21.10;;;-0.60;99.90;;;;;;6221818;23;20144;-84
2023/01/17 23:01:27;;;;;;;77.55;18.85;;;-0.60;99.90;;;;;;6223049;23;20145;-84
2023/01/17 23:03:56;;;;;;;81.65;21.05;;;-0.60;99.90;;;;;;6222337;23;20141;-84
2023/01/17 23:06:29;;;;;;;77.47;18.95;;;-0.60;99.90;;;;;;6222075;23;20165;-84
2023/01/17 23:08:56;;;;;;;77.40;19.83;;;-0.50;99.90;;;;;;6222823;23;20183;-84